Weather at Cambridge Airport

Public forecast

Using degrees Celsius for public forecast. Weather courtesy of forecast.io.

Current aviation weather report (METAR) for Cambridge Airport

Report is more than 6 hours old.

2022/11/14 15:20 (retrieved 2 years ago)

EGSC 141520Z VRB02KT 1400 R23/P2000 BR OVC002 10/10 Q1006

Closest aviation forecast (TAF) to Cambridge Airport

Forecast is more than 12 hours old.

Closest forecast is RAF Mildenhall, 14.8 nm (27.4 km) NE.

2023/02/22 20:26 (retrieved 1 year ago)

TAF EGUN 222000Z 2220/2402 31009KT 9999 BKN030 BKN130 QNH2989INS BECMG 2223/2301 33010KT 9999 BKN018 QNH2994INS TEMPO 2301/2304 35012G18KT 9000 -SHRA BKN014 BECMG 2304/2306 01012G20KT 9000 -SHRA BR BKN017 QNH3002INS BECMG 2308/2309 02014G24KT 9000 -SHRA BR SCT017 BKN060 QNH3007INS BECMG 2311/2312 03012KT 9999 NSW BKN040 QNH3002INS TX08/2314Z TN05/2303Z